EmailTwitter


Observations de surface / France / LFMP (07747)

Régions: Québec | Canada | États-Unis | Europe | France | UK | Ailleurs
Station
Affichage
Infos & localisation pour LFMP (07747) | Aide pour décoder les METARs

Observations prises le 2018-08-16 à 00H00 UTC à PERPIGNAN/RIVESA, FR (LFMP)

Température: 21.0 Celsius

Point de rosée: 15.0 Celsius

Humidité relative: 69%

Indice Humidex: 25.

Vents: Ouest à 6 km/h ou 3 noeuds.

Pression au niveau moyen de la mer: 101.60 kilopascals.

Observation METAR:

LFMP 160000Z AUTO 26003KT CAVOK 21/15 Q1016=